Time;durP1;ratioP1;P1;durP2;ratioP2;P2;SDS_P1;SDS_P2;PMS_P1;PMS_P2;Temp;Humidity;BMP_temperature;BMP_pressure;BME280_temperature;BME280_humidity;BME280_pressure;Samples;Min_cycle;Max_cycle;Signal;HPM_P1;HPM_P2
2021/06/14 00:00:17;;;;;;;5.35;4.65;;;16.40;99.90;;;;;;4987020;28;20234;-82
2021/06/14 00:02:46;;;;;;;8.48;4.75;;;16.30;99.90;;;;;;4970228;28;20244;-82
2021/06/14 00:05:18;;;;;;;5.20;3.88;;;16.20;99.90;;;;;;4986929;28;20553;-81
2021/06/14 00:07:45;;;;;;;6.90;4.68;;;16.30;99.90;;;;;;4964190;29;20203;-82
2021/06/14 00:10:14;;;;;;;4.78;4.22;;;16.40;99.90;;;;;;4962100;28;20209;-83
2021/06/14 00:12:41;;;;;;;6.57;4.53;;;16.30;99.90;;;;;;4987728;28;20289;-82
2021/06/14 00:15:10;;;;;;;8.98;4.80;;;16.30;99.90;;;;;;4980555;28;20210;-81
2021/06/14 00:17:37;;;;;;;10.75;5.05;;;16.30;99.90;;;;;;4960729;28;20249;-82
2021/06/14 00:20:08;;;;;;;5.85;4.60;;;16.20;99.90;;;;;;4988564;28;20194;-80
2021/06/14 00:22:36;;;;;;;6.22;4.85;;;15.80;99.90;;;;;;4989721;28;20256;-82
2021/06/14 00:25:06;;;;;;;5.18;4.68;;;15.70;99.90;;;;;;4951119;28;20190;-81
2021/06/14 00:27:33;;;;;;;8.23;4.53;;;15.60;99.90;;;;;;4969541;28;20202;-81
2021/06/14 00:30:00;;;;;;;8.30;5.20;;;15.70;99.90;;;;;;4986467;28;20210;-82
2021/06/14 00:32:27;;;;;;;9.00;4.70;;;15.60;99.90;;;;;;4965412;29;20238;-82
2021/06/14 00:34:54;;;;;;;5.30;4.25;;;15.70;99.90;;;;;;4945157;28;20249;-81
2021/06/14 00:37:24;;;;;;;6.40;4.53;;;15.30;99.90;;;;;;4964060;28;20206;-83
2021/06/14 00:39:53;;;;;;;7.15;5.13;;;15.10;99.90;;;;;;4964665;29;20619;-82
2021/06/14 00:42:20;;;;;;;7.60;4.80;;;15.00;99.90;;;;;;4935296;29;20264;-83
2021/06/14 00:44:47;;;;;;;12.65;5.28;;;14.90;99.90;;;;;;4968810;28;20210;-82
2021/06/14 00:47:14;;;;;;;6.68;4.55;;;14.90;99.90;;;;;;4972776;28;20234;-82
2021/06/14 00:49:41;;;;;;;5.55;4.70;;;15.00;99.90;;;;;;4953835;28;20211;-82
2021/06/14 00:52:09;;;;;;;5.65;4.20;;;15.00;99.90;;;;;;4979351;28;20233;-83
2021/06/14 00:54:36;;;;;;;4.72;4.13;;;15.10;99.90;;;;;;4954907;29;20222;-82
2021/06/14 00:57:05;;;;;;;8.82;4.03;;;15.10;99.90;;;;;;4971478;28;20281;-82
2021/06/14 00:59:33;;;;;;;6.60;4.80;;;14.90;99.90;;;;;;4961438;28;20186;-84
2021/06/14 01:02:00;;;;;;;5.75;4.68;;;14.90;99.90;;;;;;4981621;28;20210;-84
2021/06/14 01:04:27;;;;;;;5.95;4.47;;;15.00;99.90;;;;;;4963228;28;20197;-83
2021/06/14 01:06:54;;;;;;;8.88;4.53;;;14.70;99.90;;;;;;4975342;28;20195;-85
2021/06/14 01:09:21;;;;;;;7.10;5.60;;;14.50;99.90;;;;;;4983870;28;20178;-84
2021/06/14 01:11:53;;;;;;;8.57;4.45;;;14.30;99.90;;;;;;4965563;28;20206;-83
2021/06/14 01:14:33;;;;;;;5.47;4.85;;;14.40;99.90;;;;;;4949167;28;20210;-84
2021/06/14 01:17:08;;;;;;;5.10;4.60;;;14.40;99.90;;;;;;4968595;29;20210;-81
2021/06/14 01:20:17;;;;;;;4.30;3.90;;;14.50;99.90;;;;;;4952588;29;20206;-81
2021/06/14 01:23:08;;;;;;;6.65;5.07;;;14.70;99.90;;;;;;4937619;29;20222;-82
2021/06/14 01:25:44;;;;;;;6.00;4.63;;;14.70;99.90;;;;;;4952942;29;20195;-82
2021/06/14 01:28:14;;;;;;;5.40;4.20;;;14.80;99.90;;;;;;4953545;28;20217;-83
2021/06/14 01:30:44;;;;;;;5.55;4.35;;;14.90;99.90;;;;;;4956911;28;20309;-81
2021/06/14 01:33:20;;;;;;;6.00;4.38;;;14.90;99.90;;;;;;4945939;29;20234;-82
2021/06/14 01:35:51;;;;;;;8.63;4.93;;;14.90;99.90;;;;;;4966151;28;20244;-82
2021/06/14 01:38:20;;;;;;;7.47;5.18;;;14.80;99.90;;;;;;4957999;28;20230;-82
2021/06/14 01:40:53;;;;;;;7.60;4.53;;;14.40;99.90;;;;;;4950993;28;20310;-82
2021/06/14 01:43:25;;;;;;;6.72;4.43;;;14.40;99.90;;;;;;4989392;28;20214;-81
2021/06/14 01:45:57;;;;;;;6.10;4.90;;;14.50;99.90;;;;;;4973413;28;20201;-81
2021/06/14 01:48:26;;;;;;;8.48;5.43;;;14.70;99.90;;;;;;4956974;29;20203;-81
2021/06/14 01:50:55;;;;;;;11.02;4.70;;;14.70;99.90;;;;;;4954870;28;20269;-83
2021/06/14 01:53:25;;;;;;;6.47;4.82;;;14.70;99.90;;;;;;4974010;28;20321;-82
2021/06/14 01:55:56;;;;;;;7.47;5.43;;;14.70;99.90;;;;;;4941852;29;20219;-81
2021/06/14 01:58:26;;;;;;;4.97;4.38;;;14.70;99.90;;;;;;4937713;29;20733;-81
2021/06/14 02:01:01;;;;;;;5.88;4.88;;;14.60;99.90;;;;;;4946268;28;20198;-83
2021/06/14 02:03:39;;;;;;;6.97;4.85;;;14.60;99.90;;;;;;4953290;28;20230;-81
2021/06/14 02:06:21;;;;;;;8.32;4.45;;;14.60;99.90;;;;;;4959546;28;20226;-84
2021/06/14 02:08:49;;;;;;;7.03;5.13;;;14.60;99.90;;;;;;4959177;28;20206;-81
2021/06/14 02:11:18;;;;;;;6.60;5.20;;;14.60;99.90;;;;;;4974995;28;20692;-84
2021/06/14 02:13:51;;;;;;;7.53;4.80;;;14.60;99.90;;;;;;4958825;28;20224;-84
2021/06/14 02:16:22;;;;;;;5.55;4.65;;;14.60;99.90;;;;;;4975220;28;20230;-82
2021/06/14 02:18:50;;;;;;;6.50;5.45;;;14.60;99.90;;;;;;4991922;28;20229;-82
2021/06/14 02:21:20;;;;;;;8.55;5.82;;;14.70;99.90;;;;;;4958627;28;20241;-83
2021/06/14 02:23:47;;;;;;;7.65;5.68;;;14.70;99.90;;;;;;4975554;28;20208;-83
2021/06/14 02:26:15;;;;;;;7.32;4.82;;;14.60;99.90;;;;;;4958664;28;20197;-84
2021/06/14 02:28:43;;;;;;;7.90;5.20;;;14.60;99.90;;;;;;4973742;28;20472;-82
2021/06/14 02:31:13;;;;;;;6.40;5.20;;;14.30;99.90;;;;;;4974522;28;20206;-84
2021/06/14 02:33:41;;;;;;;7.47;5.40;;;14.30;99.90;;;;;;4975048;28;20218;-84
2021/06/14 02:36:12;;;;;;;6.45;4.57;;;14.20;99.90;;;;;;4992905;28;20232;-83
2021/06/14 02:38:41;;;;;;;6.05;5.22;;;14.20;99.90;;;;;;4974067;28;20202;-84
2021/06/14 02:41:11;;;;;;;7.50;4.85;;;14.30;99.90;;;;;;4973997;28;20202;-83
2021/06/14 02:43:39;;;;;;;9.75;5.28;;;14.20;99.90;;;;;;4974558;28;20693;-84
2021/06/14 02:46:08;;;;;;;9.60;5.38;;;14.20;99.90;;;;;;4974125;28;20206;-82
2021/06/14 02:48:41;;;;;;;7.45;5.22;;;14.10;99.90;;;;;;4957845;28;20209;-84
2021/06/14 02:51:09;;;;;;;7.97;5.30;;;14.10;99.90;;;;;;4991339;28;20548;-83
2021/06/14 02:53:38;;;;;;;8.68;5.32;;;14.10;99.90;;;;;;4968939;28;20234;-83
2021/06/14 02:56:09;;;;;;;8.80;5.10;;;14.10;99.90;;;;;;4973223;28;20282;-83
2021/06/14 02:58:39;;;;;;;8.95;4.75;;;14.10;99.90;;;;;;4974056;28;20198;-82
2021/06/14 03:01:10;;;;;;;7.72;4.82;;;14.10;99.90;;;;;;4974105;28;20229;-83
2021/06/14 03:03:41;;;;;;;7.40;5.50;;;14.00;99.90;;;;;;4939596;28;20233;-83
2021/06/14 03:06:18;;;;;;;10.23;5.00;;;14.00;99.90;;;;;;4986914;28;20222;-83
2021/06/14 03:08:52;;;;;;;7.57;4.80;;;14.10;99.90;;;;;;4956669;28;20198;-83
2021/06/14 03:11:20;;;;;;;6.45;5.20;;;14.00;99.90;;;;;;4957386;28;20277;-82
2021/06/14 03:13:48;;;;;;;8.32;4.97;;;14.00;99.90;;;;;;4972631;28;20711;-84
2021/06/14 03:16:21;;;;;;;9.65;4.80;;;14.10;99.90;;;;;;4973063;28;20652;-82
2021/06/14 03:18:50;;;;;;;7.40;5.07;;;14.00;99.90;;;;;;4956789;28;20198;-83
2021/06/14 03:21:18;;;;;;;8.13;4.78;;;13.90;99.90;;;;;;4973698;28;20194;-83
2021/06/14 03:23:45;;;;;;;8.73;5.85;;;13.80;99.90;;;;;;4956413;28;20570;-82
2021/06/14 03:26:14;;;;;;;9.15;5.28;;;13.50;99.90;;;;;;4957048;28;20213;-83
2021/06/14 03:28:43;;;;;;;7.97;6.15;;;13.30;99.90;;;;;;4991167;28;20238;-84
2021/06/14 03:31:13;;;;;;;7.20;5.28;;;13.20;99.90;;;;;;4974007;28;20210;-85
2021/06/14 03:33:41;;;;;;;5.90;4.82;;;13.40;99.90;;;;;;4957198;28;20253;-83
2021/06/14 03:36:11;;;;;;;5.82;4.20;;;13.60;99.90;;;;;;4971497;28;20230;-80
2021/06/14 03:38:41;;;;;;;6.95;5.65;;;13.80;99.90;;;;;;4990408;28;20198;-79
2021/06/14 03:41:08;;;;;;;9.65;5.28;;;13.70;99.90;;;;;;4995855;28;20229;-85
2021/06/14 03:43:35;;;;;;;9.00;5.57;;;13.80;99.90;;;;;;4973106;28;20226;-82
2021/06/14 03:46:03;;;;;;;8.73;6.32;;;13.70;99.90;;;;;;4972782;28;20222;-84
2021/06/14 03:48:30;;;;;;;9.18;6.18;;;13.90;99.90;;;;;;4990324;28;20205;-84
2021/06/14 03:50:57;;;;;;;9.15;5.97;;;13.70;99.90;;;;;;4989453;28;20194;-81
2021/06/14 03:53:31;;;;;;;14.80;7.30;;;13.70;99.90;;;;;;4972619;28;20290;-82
2021/06/14 03:55:58;;;;;;;11.88;6.85;;;13.50;99.90;;;;;;4972756;28;20236;-82
2021/06/14 03:58:25;;;;;;;10.07;7.30;;;13.30;99.90;;;;;;4990349;28;20198;-87
2021/06/14 04:00:53;;;;;;;8.73;5.90;;;13.20;99.90;;;;;;4970679;28;20206;-84
2021/06/14 04:03:22;;;;;;;18.25;6.82;;;13.10;99.90;;;;;;4974870;23;20230;-84
2021/06/14 04:05:49;;;;;;;7.32;6.53;;;13.10;99.90;;;;;;4959241;28;20601;-85
2021/06/14 04:08:26;;;;;;;6.85;5.82;;;13.30;99.90;;;;;;4965739;28;20198;-85
2021/06/14 04:10:54;;;;;;;9.48;7.22;;;13.50;99.90;;;;;;4947558;28;20209;-85
2021/06/14 04:13:21;;;;;;;7.90;5.80;;;13.50;99.90;;;;;;4960107;28;20218;-83
2021/06/14 04:15:49;;;;;;;6.32;5.72;;;13.40;99.90;;;;;;4944303;29;20222;-84
2021/06/14 04:18:16;;;;;;;7.05;5.53;;;13.40;99.90;;;;;;4973246;28;20582;-85
2021/06/14 04:20:44;;;;;;;11.65;6.95;;;13.30;99.90;;;;;;4944944;28;20692;-84
2021/06/14 04:23:11;;;;;;;7.97;6.90;;;13.20;99.90;;;;;;4961233;28;20242;-84
2021/06/14 04:25:40;;;;;;;9.23;6.43;;;13.20;99.90;;;;;;4942295;29;20214;-87
2021/06/14 04:28:07;;;;;;;9.68;6.90;;;13.30;99.90;;;;;;4941841;29;20234;-84
2021/06/14 04:30:35;;;;;;;14.07;6.85;;;13.20;99.90;;;;;;4958645;29;20249;-84
2021/06/14 04:33:03;;;;;;;8.40;7.22;;;13.30;99.90;;;;;;4958579;29;20222;-84
2021/06/14 04:35:31;;;;;;;11.05;6.70;;;13.60;99.90;;;;;;4962152;28;20219;-84
2021/06/14 04:37:58;;;;;;;9.07;6.45;;;13.60;99.90;;;;;;4958453;29;20265;-83
2021/06/14 04:40:25;;;;;;;7.70;6.25;;;13.70;99.90;;;;;;4955859;28;20221;-83
2021/06/14 04:42:54;;;;;;;7.93;6.88;;;13.80;99.90;;;;;;4977932;28;20237;-85
2021/06/14 04:45:23;;;;;;;14.85;7.43;;;14.00;99.90;;;;;;4958805;28;20198;-84
2021/06/14 04:47:50;;;;;;;8.38;6.32;;;14.30;99.90;;;;;;4979229;28;20198;-85
2021/06/14 04:50:17;;;;;;;10.63;6.32;;;14.30;99.90;;;;;;4959925;28;20685;-85
2021/06/14 04:52:45;;;;;;;12.32;6.13;;;14.10;99.90;;;;;;4944801;28;20217;-82
2021/06/14 04:55:12;;;;;;;7.20;6.25;;;13.90;99.90;;;;;;4979502;28;20202;-83
2021/06/14 04:57:40;;;;;;;7.57;5.90;;;14.10;99.90;;;;;;4962073;28;20198;-82
2021/06/14 05:00:11;;;;;;;7.20;6.40;;;14.20;99.90;;;;;;4979495;28;20266;-82
2021/06/14 05:02:38;;;;;;;6.88;6.20;;;14.20;99.90;;;;;;4944504;28;20247;-83
2021/06/14 05:05:07;;;;;;;10.18;6.40;;;14.40;99.90;;;;;;4976382;28;20697;-83
2021/06/14 05:07:34;;;;;;;11.73;7.43;;;14.40;99.90;;;;;;4959795;28;20226;-83
2021/06/14 05:10:01;;;;;;;11.57;6.22;;;14.50;99.90;;;;;;4977433;28;20259;-83
2021/06/14 05:12:31;;;;;;;8.55;6.57;;;14.50;99.90;;;;;;4993840;28;20705;-84
2021/06/14 05:14:58;;;;;;;8.82;7.28;;;14.60;99.90;;;;;;4959766;28;20202;-84
2021/06/14 05:17:27;;;;;;;11.65;7.75;;;14.60;99.90;;;;;;4978078;28;20628;-83
2021/06/14 05:19:55;;;;;;;9.98;6.60;;;14.90;99.90;;;;;;4959698;28;20681;-85
2021/06/14 05:22:22;;;;;;;9.65;6.97;;;15.00;99.90;;;;;;4961159;28;20614;-85
2021/06/14 05:24:49;;;;;;;9.15;7.18;;;15.10;99.90;;;;;;4948220;29;20199;-84
2021/06/14 05:27:17;;;;;;;8.40;6.55;;;15.20;99.90;;;;;;4959199;29;20700;-85
2021/06/14 05:29:44;;;;;;;10.27;7.32;;;15.30;99.90;;;;;;4948260;29;20202;-84
2021/06/14 05:32:11;;;;;;;9.63;6.35;;;15.30;99.90;;;;;;4945724;29;20210;-85
2021/06/14 05:34:40;;;;;;;11.38;6.93;;;15.40;99.90;;;;;;4954006;28;20206;-87
2021/06/14 05:37:07;;;;;;;8.90;5.60;;;15.40;99.90;;;;;;4997615;28;20613;-85
2021/06/14 05:39:34;;;;;;;11.55;6.20;;;15.70;99.90;;;;;;4964920;28;20676;-84
2021/06/14 05:42:05;;;;;;;9.13;6.63;;;15.90;99.90;;;;;;4964077;28;20230;-84
2021/06/14 05:44:32;;;;;;;11.48;6.50;;;15.80;99.90;;;;;;4982229;28;20672;-85
2021/06/14 05:47:00;;;;;;;14.10;7.10;;;16.10;99.90;;;;;;4948757;28;20194;-84
2021/06/14 05:49:27;;;;;;;10.23;6.43;;;16.10;99.90;;;;;;4948834;28;20677;-85
2021/06/14 05:51:56;;;;;;;10.65;5.97;;;16.30;99.90;;;;;;4965233;28;20210;-85
2021/06/14 05:54:23;;;;;;;7.28;5.88;;;16.40;99.90;;;;;;4964942;28;20262;-85
2021/06/14 05:56:53;;;;;;;11.13;7.13;;;16.60;99.90;;;;;;4981588;28;20268;-84
2021/06/14 05:59:24;;;;;;;11.15;6.60;;;16.70;99.90;;;;;;4947871;28;20300;-85
2021/06/14 06:01:54;;;;;;;6.47;4.80;;;16.80;99.90;;;;;;4964138;28;20582;-85
2021/06/14 06:04:21;;;;;;;9.13;5.32;;;17.00;99.90;;;;;;4980531;28;20641;-85
2021/06/14 06:06:48;;;;;;;7.88;5.40;;;17.10;99.90;;;;;;4981471;28;20685;-86
2021/06/14 06:09:17;;;;;;;9.45;6.00;;;17.00;99.90;;;;;;4980891;28;20229;-85
2021/06/14 06:11:44;;;;;;;11.27;5.88;;;17.00;99.90;;;;;;4947910;28;20246;-85
2021/06/14 06:14:11;;;;;;;6.13;5.25;;;17.00;99.90;;;;;;4963818;28;20229;-84
2021/06/14 06:16:38;;;;;;;8.68;5.40;;;17.30;99.90;;;;;;4961998;28;20273;-85
2021/06/14 06:19:06;;;;;;;6.93;4.85;;;17.10;99.90;;;;;;4962360;28;20233;-85
2021/06/14 06:21:33;;;;;;;8.68;5.20;;;17.30;99.90;;;;;;4962874;28;20389;-86
2021/06/14 06:24:01;;;;;;;6.15;4.95;;;17.60;99.90;;;;;;4971486;28;20586;-85
2021/06/14 06:26:52;;;;;;;8.95;4.55;;;17.80;99.90;;;;;;4945324;28;20216;-85
2021/06/14 06:29:19;;;;;;;8.73;4.85;;;17.80;99.90;;;;;;4963398;28;20217;-79
2021/06/14 06:31:46;;;;;;;10.95;5.53;;;18.10;99.90;;;;;;4975646;28;20214;-80
2021/06/14 06:34:13;;;;;;;7.80;5.00;;;17.90;99.90;;;;;;4975805;28;20288;-80
2021/06/14 06:36:40;;;;;;;11.45;5.63;;;17.80;99.90;;;;;;4977592;28;20226;-80
2021/06/14 06:39:07;;;;;;;6.28;3.88;;;18.00;99.90;;;;;;4966546;28;20205;-79
2021/06/14 06:41:34;;;;;;;9.60;5.15;;;18.10;99.90;;;;;;4976198;28;20229;-80
2021/06/14 06:44:04;;;;;;;9.73;4.72;;;18.20;99.90;;;;;;4975807;28;20218;-81
2021/06/14 06:46:31;;;;;;;6.13;5.03;;;18.30;99.90;;;;;;4976452;28;20294;-79
2021/06/14 06:48:58;;;;;;;7.00;4.75;;;18.40;99.90;;;;;;4975019;28;20217;-80
2021/06/14 06:51:25;;;;;;;7.93;4.95;;;18.50;99.90;;;;;;4973053;28;20229;-79
2021/06/14 06:54:10;;;;;;;11.23;5.47;;;18.60;99.90;;;;;;4968141;28;20214;-81
2021/06/14 06:56:37;;;;;;;10.68;4.95;;;18.80;99.90;;;;;;4957189;28;20703;-80
2021/06/14 06:59:06;;;;;;;7.30;4.63;;;18.90;99.90;;;;;;4971591;28;20198;-80
2021/06/14 07:01:33;;;;;;;8.30;5.63;;;19.00;99.90;;;;;;4956459;28;20615;-79
2021/06/14 07:04:00;;;;;;;7.85;4.68;;;19.20;99.90;;;;;;4958489;28;20276;-78
2021/06/14 07:06:27;;;;;;;8.45;4.55;;;19.30;99.90;;;;;;4970658;28;20266;-79
2021/06/14 07:08:57;;;;;;;5.53;4.70;;;19.50;99.90;;;;;;4967426;28;20210;-83
2021/06/14 07:11:24;;;;;;;11.35;5.43;;;19.30;99.90;;;;;;4981876;28;20258;-83
2021/06/14 07:13:51;;;;;;;8.20;4.63;;;19.30;99.90;;;;;;4981870;28;20202;-82
2021/06/14 07:16:20;;;;;;;7.05;4.43;;;19.30;99.90;;;;;;4981339;28;20256;-82
2021/06/14 07:18:48;;;;;;;9.25;4.80;;;19.60;99.90;;;;;;4979478;28;20198;-81
2021/06/14 07:21:15;;;;;;;11.55;4.82;;;19.80;99.90;;;;;;4991763;28;20206;-79
2021/06/14 07:23:42;;;;;;;6.72;4.75;;;19.70;99.90;;;;;;4946257;28;20222;-79
2021/06/14 07:26:10;;;;;;;4.93;3.97;;;19.70;99.90;;;;;;4962262;28;20213;-81
2021/06/14 07:28:37;;;;;;;9.20;4.55;;;19.90;99.90;;;;;;4969188;28;20198;-80
2021/06/14 07:31:06;;;;;;;10.20;5.43;;;19.90;99.90;;;;;;4985884;28;20205;-80
2021/06/14 07:33:35;;;;;;;7.25;4.85;;;20.20;99.90;;;;;;4941457;29;20218;-77
2021/06/14 07:36:03;;;;;;;6.13;3.95;;;20.30;99.90;;;;;;4968324;28;20205;-79
2021/06/14 07:38:30;;;;;;;8.05;5.15;;;20.30;99.90;;;;;;4996918;28;20209;-79
2021/06/14 07:40:57;;;;;;;11.43;4.75;;;20.40;99.90;;;;;;4993740;28;20210;-83
2021/06/14 07:43:24;;;;;;;6.10;4.28;;;20.60;99.90;;;;;;4979890;28;20589;-78
2021/06/14 07:45:51;;;;;;;9.90;4.72;;;20.50;99.90;;;;;;4974135;28;20281;-79
2021/06/14 07:48:18;;;;;;;7.40;4.32;;;20.40;99.90;;;;;;4973799;28;20342;-79
2021/06/14 07:50:47;;;;;;;9.05;4.40;;;20.70;99.90;;;;;;4974259;28;20222;-77
2021/06/14 07:53:14;;;;;;;6.28;3.90;;;21.00;99.90;;;;;;4972883;28;20308;-80
2021/06/14 07:55:42;;;;;;;9.32;4.50;;;20.60;99.90;;;;;;4986719;28;20193;-79
2021/06/14 07:58:09;;;;;;;9.15;4.60;;;20.60;99.90;;;;;;4973854;28;20261;-80
2021/06/14 08:00:37;;;;;;;5.63;4.22;;;20.40;99.90;;;;;;4958639;28;20300;-80
2021/06/14 08:03:04;;;;;;;6.75;4.22;;;20.50;99.90;;;;;;4958719;28;20268;-78
2021/06/14 08:05:31;;;;;;;5.97;4.07;;;20.80;99.90;;;;;;4976260;28;20257;-79
2021/06/14 08:08:00;;;;;;;6.15;4.47;;;21.00;99.90;;;;;;4958231;28;20198;-79
2021/06/14 08:10:27;;;;;;;9.55;4.47;;;20.90;99.90;;;;;;4976957;28;20256;-83
2021/06/14 08:12:55;;;;;;;7.05;4.25;;;21.10;99.90;;;;;;4958166;28;20219;-80
2021/06/14 08:15:24;;;;;;;11.45;4.70;;;21.20;99.90;;;;;;4960053;28;20250;-80
2021/06/14 08:17:55;;;;;;;6.43;4.32;;;21.20;99.90;;;;;;4973373;28;20253;-78
2021/06/14 08:20:29;;;;;;;4.85;3.88;;;21.40;99.90;;;;;;4966152;28;20712;-80
2021/06/14 08:25:58;;;;;;;7.45;4.45;;;21.70;99.90;;;;;;4899627;29;20200;-79
2021/06/14 08:28:26;;;;;;;4.97;4.10;;;21.70;99.90;;;;;;4906453;29;20196;-79
2021/06/14 08:30:53;;;;;;;12.63;4.47;;;21.90;99.90;;;;;;4939994;28;20668;-80
2021/06/14 08:33:20;;;;;;;7.03;4.20;;;22.10;99.90;;;;;;4952006;28;20214;-77
2021/06/14 08:38:48;;;;;;;6.53;3.25;;;22.00;99.90;;;;;;4936938;29;20201;-80
2021/06/14 08:41:17;;;;;;;9.85;4.15;;;21.90;99.90;;;;;;4937838;28;20207;-80
2021/06/14 08:43:45;;;;;;;6.85;3.58;;;22.20;99.90;;;;;;4955231;28;20293;-79
2021/06/14 08:46:13;;;;;;;7.05;4.07;;;22.30;99.90;;;;;;4969586;28;20228;-80
2021/06/14 08:48:42;;;;;;;8.02;3.72;;;22.10;99.90;;;;;;4970553;28;20264;-79
2021/06/14 08:51:10;;;;;;;5.47;3.05;;;21.80;99.90;;;;;;4971979;28;20205;-79
2021/06/14 08:53:38;;;;;;;6.22;3.85;;;22.10;99.90;;;;;;4974403;28;20266;-78
2021/06/14 08:56:06;;;;;;;7.50;3.95;;;22.30;99.90;;;;;;4939457;28;20203;-78
2021/06/14 08:58:34;;;;;;;4.95;3.63;;;22.40;99.90;;;;;;4956927;28;20213;-80
2021/06/14 09:01:02;;;;;;;9.82;4.57;;;22.60;99.90;;;;;;4940708;28;20285;-79
2021/06/14 09:03:29;;;;;;;5.07;3.65;;;22.90;99.90;;;;;;4975164;28;20233;-80
2021/06/14 09:05:57;;;;;;;6.45;3.42;;;22.70;99.90;;;;;;4958504;28;20229;-79
2021/06/14 09:08:25;;;;;;;9.73;3.38;;;22.50;99.90;;;;;;4977998;28;20198;-81
2021/06/14 09:10:53;;;;;;;6.10;4.38;;;22.60;99.90;;;;;;4977827;28;20230;-82
2021/06/14 09:13:23;;;;;;;7.05;3.47;;;22.70;99.90;;;;;;4959863;28;20297;-80
2021/06/14 09:15:57;;;;;;;11.38;3.28;;;22.50;99.90;;;;;;4950714;29;20199;-77
2021/06/14 09:18:26;;;;;;;7.07;3.72;;;22.90;99.90;;;;;;4959117;29;20231;-80
2021/06/14 09:20:56;;;;;;;5.93;3.25;;;22.80;99.90;;;;;;4975775;28;20580;-79
2021/06/14 09:23:24;;;;;;;4.63;3.55;;;22.70;99.90;;;;;;4961922;28;20226;-81
2021/06/14 09:25:51;;;;;;;4.40;3.83;;;22.70;99.90;;;;;;4969621;28;20680;-80
2021/06/14 09:28:19;;;;;;;4.22;3.30;;;22.80;99.90;;;;;;4960931;28;20222;-81
2021/06/14 09:30:46;;;;;;;9.15;3.53;;;23.30;99.90;;;;;;4974137;28;20676;-81
2021/06/14 09:33:24;;;;;;;5.22;3.42;;;23.30;99.90;;;;;;4979234;28;20226;-81
2021/06/14 09:35:52;;;;;;;5.28;3.35;;;23.00;99.90;;;;;;4979940;28;20852;-80
2021/06/14 09:38:20;;;;;;;4.80;3.10;;;23.10;99.90;;;;;;4980442;28;20265;-81
2021/06/14 09:40:50;;;;;;;7.00;3.65;;;23.50;99.90;;;;;;4962394;28;20206;-79
2021/06/14 09:43:23;;;;;;;7.38;3.53;;;23.20;99.90;;;;;;4961707;28;20277;-81
2021/06/14 09:45:52;;;;;;;7.10;3.70;;;23.20;99.90;;;;;;4968622;28;20194;-80
2021/06/14 09:48:19;;;;;;;5.43;3.47;;;23.40;99.90;;;;;;4977938;28;20202;-80
2021/06/14 09:50:50;;;;;;;5.35;3.72;;;23.50;99.90;;;;;;4977118;28;20210;-80
2021/06/14 09:53:19;;;;;;;3.53;2.58;;;23.60;99.90;;;;;;4975925;28;20264;-80
2021/06/14 09:55:48;;;;;;;5.15;3.38;;;23.70;99.90;;;;;;4961093;28;20245;-80
2021/06/14 09:58:17;;;;;;;4.40;2.70;;;23.60;99.90;;;;;;4978121;28;20349;-79
2021/06/14 10:00:49;;;;;;;4.10;3.05;;;23.50;99.90;;;;;;4976478;28;20625;-79
2021/06/14 10:03:16;;;;;;;5.15;3.38;;;23.60;99.90;;;;;;4999285;23;20715;-37
2021/06/14 10:05:49;;;;;;;5.07;3.17;;;23.80;99.90;;;;;;4986726;28;20237;-36
2021/06/14 10:08:28;;;;;;;6.75;3.45;;;24.00;99.90;;;;;;4976165;28;20241;-37
2021/06/14 10:11:09;;;;;;;3.60;3.05;;;23.70;99.90;;;;;;4973191;28;20222;-37
2021/06/14 10:13:39;;;;;;;6.43;2.72;;;24.00;99.90;;;;;;4974223;28;20197;-37
2021/06/14 10:16:08;;;;;;;4.85;3.00;;;24.40;99.90;;;;;;4973665;28;20200;-37
2021/06/14 10:18:38;;;;;;;4.20;3.13;;;24.30;99.90;;;;;;4982649;23;20581;-37
2021/06/14 10:21:10;;;;;;;6.88;4.40;;;24.60;99.90;;;;;;4971237;28;20565;-38
2021/06/14 10:23:37;;;;;;;4.65;2.95;;;24.80;99.90;;;;;;4971254;28;20205;-37
2021/06/14 10:26:05;;;;;;;4.82;3.00;;;24.80;99.90;;;;;;4970381;28;20198;-37
2021/06/14 10:28:32;;;;;;;5.38;3.30;;;24.70;99.90;;;;;;4948973;28;20223;-39
2021/06/14 10:30:59;;;;;;;6.13;3.63;;;25.10;99.90;;;;;;4951389;29;20560;-37
2021/06/14 10:33:28;;;;;;;5.30;3.35;;;24.90;99.90;;;;;;4944425;29;20211;-37
2021/06/14 10:35:57;;;;;;;4.88;3.35;;;24.50;99.90;;;;;;4940827;29;20254;-37
2021/06/14 10:38:25;;;;;;;6.47;3.53;;;24.60;99.90;;;;;;4952102;28;20242;-37
2021/06/14 10:40:55;;;;;;;6.88;3.72;;;24.90;99.90;;;;;;4953463;29;20351;-38
2021/06/14 10:43:26;;;;;;;4.50;3.03;;;25.10;99.90;;;;;;4954223;29;20203;-37
2021/06/14 10:45:56;;;;;;;5.65;3.47;;;24.90;99.90;;;;;;4949341;29;20233;-37
2021/06/14 10:48:29;;;;;;;13.80;4.65;;;25.10;99.90;;;;;;4951227;28;20234;-36
2021/06/14 10:50:58;;;;;;;8.98;3.00;;;25.30;99.90;;;;;;4946062;29;20648;-38
2021/06/14 10:53:28;;;;;;;4.68;3.72;;;25.10;99.90;;;;;;4952193;29;20210;-37
2021/06/14 10:55:56;;;;;;;4.93;3.22;;;25.10;99.90;;;;;;4948520;29;20302;-37
2021/06/14 10:58:27;;;;;;;6.25;3.53;;;25.10;99.90;;;;;;4934418;29;20314;-37
2021/06/14 11:01:03;;;;;;;5.75;3.45;;;25.00;99.90;;;;;;4934715;29;20290;-37
2021/06/14 11:03:42;;;;;;;4.63;2.95;;;25.00;99.90;;;;;;4937831;29;20226;-37
2021/06/14 11:06:17;;;;;;;5.88;2.97;;;25.20;99.90;;;;;;4953613;29;20240;-39
2021/06/14 11:09:07;;;;;;;4.32;3.25;;;25.30;99.90;;;;;;4944514;28;20250;-37
2021/06/14 11:11:45;;;;;;;5.70;3.08;;;25.70;99.90;;;;;;4948149;29;20572;-37
2021/06/14 11:14:13;;;;;;;7.75;3.50;;;25.50;99.90;;;;;;4937755;29;20238;-37
2021/06/14 11:16:41;;;;;;;8.18;3.47;;;25.80;99.90;;;;;;4945981;29;20214;-37
2021/06/14 11:19:11;;;;;;;3.03;2.72;;;25.60;99.90;;;;;;4952811;28;20233;-37
2021/06/14 11:21:39;;;;;;;6.15;3.67;;;25.90;99.90;;;;;;4950665;29;20298;-39
2021/06/14 11:24:11;;;;;;;4.72;3.58;;;26.40;99.90;;;;;;4952545;29;20755;-37
2021/06/14 11:26:39;;;;;;;5.95;2.67;;;26.20;99.90;;;;;;4951302;29;20202;-39
2021/06/14 11:29:14;;;;;;;5.35;3.78;;;25.80;99.90;;;;;;4946114;29;20350;-38
2021/06/14 11:31:42;;;;;;;4.95;3.20;;;26.00;99.90;;;;;;4950981;29;20206;-38
2021/06/14 11:34:20;;;;;;;6.45;3.45;;;26.10;99.90;;;;;;4951039;29;20246;-37
2021/06/14 11:36:58;;;;;;;5.00;3.30;;;26.20;99.90;;;;;;4952470;29;20658;-38
2021/06/14 11:39:27;;;;;;;4.88;3.40;;;26.30;99.90;;;;;;4948092;28;20254;-39
2021/06/14 11:41:55;;;;;;;5.90;3.38;;;26.40;99.90;;;;;;4940665;29;20289;-36
2021/06/14 11:44:25;;;;;;;4.63;3.38;;;26.90;99.90;;;;;;4951646;29;20210;-36
2021/06/14 11:46:53;;;;;;;4.65;3.50;;;26.90;99.90;;;;;;4948676;29;20226;-39
2021/06/14 11:49:22;;;;;;;6.75;3.40;;;26.80;99.90;;;;;;4949511;28;20242;-40
2021/06/14 11:51:49;;;;;;;3.35;2.80;;;27.00;99.90;;;;;;4951777;29;20562;-38
2021/06/14 11:54:17;;;;;;;4.65;2.65;;;27.00;99.90;;;;;;4951367;29;20553;-37
2021/06/14 11:56:58;;;;;;;8.02;3.67;;;26.90;99.90;;;;;;4952263;29;20218;-41
2021/06/14 11:59:31;;;;;;;6.65;2.85;;;27.00;99.90;;;;;;4951329;28;20784;-37
2021/06/14 12:01:58;;;;;;;5.68;3.53;;;27.40;99.90;;;;;;4949368;29;20262;-37
2021/06/14 12:04:25;;;;;;;4.03;3.13;;;27.50;99.90;;;;;;4952023;29;20254;-38
2021/06/14 12:06:53;;;;;;;6.78;3.33;;;27.70;99.90;;;;;;4949637;29;20222;-39
2021/06/14 12:09:25;;;;;;;4.30;3.17;;;27.70;99.90;;;;;;4951008;28;20210;-41
2021/06/14 12:11:59;;;;;;;4.80;3.08;;;28.00;99.90;;;;;;4949787;29;20198;-39
2021/06/14 12:14:27;;;;;;;3.08;2.78;;;27.80;99.90;;;;;;4952014;29;20211;-38
2021/06/14 12:17:00;;;;;;;4.60;2.85;;;27.30;99.90;;;;;;4948653;29;20519;-38
2021/06/14 12:19:29;;;;;;;3.72;2.63;;;27.40;99.90;;;;;;4949635;28;20226;-38
2021/06/14 12:21:58;;;;;;;5.80;3.03;;;27.70;99.90;;;;;;4941512;29;20199;-39
2021/06/14 12:24:26;;;;;;;6.97;2.92;;;27.90;99.90;;;;;;4952433;29;20265;-37
2021/06/14 12:27:01;;;;;;;4.13;3.30;;;28.00;99.90;;;;;;4948123;29;20207;-37
2021/06/14 12:29:28;;;;;;;4.30;2.78;;;28.10;99.90;;;;;;4944865;28;20242;-37
2021/06/14 12:32:04;;;;;;;6.35;2.60;;;27.70;99.90;;;;;;4945603;28;20199;-37
2021/06/14 12:34:31;;;;;;;4.18;1.98;;;28.00;99.90;;;;;;4946666;29;20198;-37
2021/06/14 12:37:05;;;;;;;3.67;2.53;;;27.70;99.90;;;;;;4950078;29;20262;-37
2021/06/14 12:39:33;;;;;;;7.78;2.40;;;27.70;99.90;;;;;;4945326;28;20239;-39
2021/06/14 12:42:02;;;;;;;4.53;3.00;;;27.70;99.90;;;;;;4951671;28;20206;-37
2021/06/14 12:44:29;;;;;;;4.30;2.22;;;27.60;99.90;;;;;;4955815;29;20252;-39
2021/06/14 12:46:57;;;;;;;2.45;2.15;;;28.20;99.90;;;;;;4955493;28;20202;-37
2021/06/14 12:49:28;;;;;;;2.63;2.10;;;28.70;99.90;;;;;;4953439;28;20215;-38
2021/06/14 12:51:55;;;;;;;4.43;2.55;;;29.10;99.90;;;;;;4953520;28;20202;-37
2021/06/14 12:54:24;;;;;;;2.55;2.35;;;28.90;99.90;;;;;;4951625;28;20203;-37
2021/06/14 12:56:55;;;;;;;2.97;2.55;;;29.00;99.90;;;;;;4955838;29;20206;-36
2021/06/14 12:59:24;;;;;;;2.92;2.17;;;29.00;99.90;;;;;;4943230;28;20230;-38
2021/06/14 13:01:51;;;;;;;2.47;2.28;;;29.30;99.90;;;;;;4952951;29;20673;-37